Time;durP1;ratioP1;P1;durP2;ratioP2;P2;SDS_P1;SDS_P2;PMS_P1;PMS_P2;Temp;Humidity;BMP_temperature;BMP_pressure;BME280_temperature;BME280_humidity;BME280_pressure;Samples;Min_cycle;Max_cycle;Signal;HPM_P1;HPM_P2
2024/03/06 00:02:27;;;;;;;;;56.33;39.67;;;;;6.08;100.00;100731.71;112363;245;39508;-53
2024/03/06 00:05:07;;;;;;;;;55.00;37.00;;;;;6.09;100.00;100738.05;112334;244;39160;-54
2024/03/06 00:07:48;;;;;;;;;49.25;34.00;;;;;6.09;100.00;100737.29;112217;243;161560;-52
2024/03/06 00:10:27;;;;;;;;;41.00;32.00;;;;;6.10;100.00;100738.44;112373;244;39102;-53
2024/03/06 00:13:07;;;;;;;;;53.75;37.00;;;;;6.09;100.00;100739.80;112228;244;161606;-49
2024/03/06 00:15:49;;;;;;;;;47.25;33.50;;;;;6.10;100.00;100737.80;112405;244;40010;-53
2024/03/06 00:18:31;;;;;;;;;50.00;34.00;;;;;6.12;100.00;100741.48;112239;242;162125;-50
2024/03/06 00:21:09;;;;;;;;;52.00;34.33;;;;;6.12;100.00;100740.94;112367;244;39666;-52
2024/03/06 00:23:45;;;;;;;;;45.00;32.00;;;;;6.13;100.00;100744.40;112384;244;39568;-53
2024/03/06 00:26:22;;;;;;;;;51.25;36.75;;;;;6.14;100.00;100745.61;112432;243;39376;-49
2024/03/06 00:29:00;;;;;;;;;45.50;33.00;;;;;6.16;100.00;100741.41;112380;244;40422;-49
2024/03/06 00:31:37;;;;;;;;;44.25;32.00;;;;;6.20;100.00;100746.45;112281;242;161877;-52
2024/03/06 00:34:13;;;;;;;;;45.33;32.67;;;;;6.19;100.00;100743.26;112396;244;39432;-52
2024/03/06 00:36:48;;;;;;;;;47.00;33.00;;;;;6.18;100.00;100741.95;112297;242;161837;-53
2024/03/06 00:39:21;;;;;;;;;48.25;34.00;;;;;6.18;100.00;100741.59;112401;245;40911;-53
2024/03/06 00:41:58;;;;;;;;;49.50;34.00;;;;;6.18;100.00;100743.34;112257;241;162085;-53
2024/03/06 00:44:35;;;;;;;;;47.50;34.50;;;;;6.20;100.00;100740.34;112380;244;40444;-54
2024/03/06 00:47:15;;;;;;;;;54.33;38.00;;;;;6.20;100.00;100742.46;112399;244;40174;-49
2024/03/06 00:49:54;;;;;;;;;54.75;37.00;;;;;6.22;100.00;100743.91;112249;241;162452;-50
2024/03/06 00:52:38;;;;;;;;;57.75;40.00;;;;;6.21;100.00;100747.37;112407;244;39890;-51
2024/03/06 00:55:19;;;;;;;;;52.50;36.50;;;;;6.20;100.00;100746.41;112220;242;161687;-50
2024/03/06 00:57:58;;;;;;;;;51.67;36.33;;;;;6.21;100.00;100750.21;112395;244;39333;-50
2024/03/06 01:00:33;;;;;;;;;49.25;35.00;;;;;6.21;100.00;100750.98;112232;242;162613;-50
2024/03/06 01:03:16;;;;;;;;;49.75;37.50;;;;;6.24;100.00;100746.36;112395;244;40169;-54
2024/03/06 01:05:59;;;;;;;;;52.00;37.33;;;;;6.26;100.00;100750.59;112396;244;39496;-53
2024/03/06 01:08:37;;;;;;;;;49.50;34.50;;;;;6.24;100.00;100752.05;112178;244;40314;-51
2024/03/06 01:11:14;;;;;;;;;47.33;36.00;;;;;6.25;100.00;100757.46;112420;244;39604;-51
2024/03/06 01:13:54;;;;;;;;;53.33;34.67;;;;;6.27;100.00;100756.58;112205;242;162850;-51
2024/03/06 01:16:31;;;;;;;;;52.50;38.00;;;;;6.28;100.00;100753.86;112384;244;39115;-51
2024/03/06 01:19:13;;;;;;;;;52.00;37.00;;;;;6.28;100.00;100752.59;112263;242;162402;-51
2024/03/06 01:21:54;;;;;;;;;57.00;39.00;;;;;6.30;100.00;100758.77;112392;244;39208;-54
2024/03/06 01:24:39;;;;;;;;;50.00;35.25;;;;;6.32;100.00;100760.71;112261;242;162604;-54
2024/03/06 01:27:24;;;;;;;;;43.00;30.25;;;;;6.32;100.00;100761.98;112402;244;39842;-53
2024/03/06 01:30:02;;;;;;;;;47.25;31.75;;;;;6.41;100.00;100763.52;112249;242;162008;-53
2024/03/06 01:32:42;;;;;;;;;49.00;36.00;;;;;6.40;100.00;100764.08;112359;245;38829;-51
2024/03/06 01:35:17;;;;;;;;;46.33;34.00;;;;;6.36;100.00;100765.35;112402;244;39729;-50
2024/03/06 01:37:54;;;;;;;;;57.00;40.67;;;;;6.42;100.00;100767.19;112247;242;161980;-50
2024/03/06 01:40:40;;;;;;;;;48.25;35.25;;;;;6.48;100.00;100768.55;112379;244;39959;-50
2024/03/06 01:43:27;;;;;;;;;47.00;34.00;;;;;6.52;100.00;100771.23;112260;243;161808;-50
2024/03/06 01:46:07;;;;;;;;;45.75;34.00;;;;;6.52;100.00;100773.02;112377;244;39480;-53
2024/03/06 01:48:48;;;;;;;;;44.75;32.75;;;;;6.54;100.00;100772.83;112271;242;162143;-53
2024/03/06 01:51:26;;;;;;;;;44.00;31.50;;;;;6.52;100.00;100773.86;112434;244;39698;-51
2024/03/06 01:54:04;;;;;;;;;46.00;34.00;;;;;6.59;100.00;100774.52;112274;242;162363;-50
2024/03/06 01:56:48;;;;;;;;;58.33;42.00;;;;;6.59;100.00;100778.59;112430;244;39193;-50
2024/03/06 01:59:29;;;;;;;;;51.25;38.25;;;;;6.53;100.00;100777.92;112433;244;41354;-50
2024/03/06 02:02:05;;;;;;;;;44.00;33.00;;;;;6.53;100.00;100780.23;112265;242;161914;-50
2024/03/06 02:04:46;;;;;;;;;47.25;34.00;;;;;6.57;100.00;100781.64;112431;245;40805;-50
2024/03/06 02:07:23;;;;;;;;;47.50;35.00;;;;;6.57;100.00;100779.39;112302;242;162092;-51
2024/03/06 02:09:59;;;;;;;;;48.00;37.00;;;;;6.52;100.00;100781.23;112381;244;41632;-51
2024/03/06 02:12:39;;;;;;;;;43.50;31.00;;;;;6.50;100.00;100778.73;112304;242;162189;-53
2024/03/06 02:15:14;;;;;;;;;37.75;28.75;;;;;6.50;100.00;100784.67;112420;244;39841;-53
2024/03/06 02:17:49;;;;;;;;;53.00;40.00;;;;;6.46;100.00;100786.14;112456;244;39462;-53
2024/03/06 02:20:28;;;;;;;;;43.67;31.00;;;;;6.49;100.00;100787.25;112442;243;39610;-52
2024/03/06 02:23:07;;;;;;;;;35.67;27.33;;;;;6.54;100.00;100786.28;112419;244;39097;-54
2024/03/06 02:25:52;;;;;;;;;38.00;27.67;;;;;6.55;100.00;100786.90;112258;242;161878;-54
2024/03/06 02:28:27;;;;;;;;;39.67;29.00;;;;;6.57;100.00;100783.85;112391;244;40479;-51
2024/03/06 02:31:06;;;;;;;;;38.50;28.75;;;;;6.60;100.00;100779.75;112292;242;161690;-51
2024/03/06 02:33:48;;;;;;;;;45.25;33.75;;;;;6.60;100.00;100782.08;112399;245;39955;-51
2024/03/06 02:36:30;;;;;;;;;45.00;31.50;;;;;6.57;100.00;100784.36;112263;241;162022;-50
2024/03/06 02:39:10;;;;;;;;;44.75;34.00;;;;;6.51;100.00;100780.82;112326;244;39099;-51
2024/03/06 02:41:50;;;;;;;;;36.00;26.50;;;;;6.47;100.00;100781.24;112377;244;39608;-55
2024/03/06 02:44:28;;;;;;;;;33.75;24.00;;;;;6.49;100.00;100783.19;112326;245;41407;-55
2024/03/06 02:47:05;;;;;;;;;36.75;27.50;;;;;6.51;100.00;100783.97;112397;245;39762;-53
2024/03/06 02:49:47;;;;;;;;;37.25;28.00;;;;;6.54;100.00;100787.34;112281;241;162124;-51
2024/03/06 02:52:30;;;;;;;;;36.33;26.67;;;;;6.48;100.00;100791.09;112424;244;39946;-53
2024/03/06 02:55:09;;;;;;;;;38.25;28.00;;;;;6.48;100.00;100786.86;112200;243;161738;-53
2024/03/06 02:57:44;;;;;;;;;36.00;27.00;;;;;6.42;100.00;100788.01;112487;244;39774;-54
2024/03/06 03:00:20;;;;;;;;;39.00;29.00;;;;;6.40;100.00;100786.35;112403;242;162776;-54
2024/03/06 03:02:59;;;;;;;;;41.00;30.00;;;;;6.40;100.00;100788.39;112476;244;40728;-53
2024/03/06 03:05:40;;;;;;;;;39.00;26.25;;;;;6.35;100.00;100790.84;112573;244;38960;-52
2024/03/06 03:08:20;;;;;;;;;31.00;24.25;;;;;6.38;100.00;100794.82;112298;242;163306;-55
2024/03/06 03:11:04;;;;;;;;;39.00;29.00;;;;;6.40;100.00;100794.86;112551;244;39587;-52
2024/03/06 03:13:44;;;;;;;;;41.00;30.00;;;;;6.42;100.00;100795.86;112325;242;162085;-52
2024/03/06 03:16:32;;;;;;;;;49.75;34.50;;;;;6.42;100.00;100800.63;112571;244;39377;-55
2024/03/06 03:19:12;;;;;;;;;43.75;29.75;;;;;6.46;100.00;100802.11;112285;242;161745;-56
2024/03/06 03:21:49;;;;;;;;;34.25;27.00;;;;;6.50;100.00;100806.46;112461;244;40958;-55
2024/03/06 03:24:23;;;;;;;;;32.00;24.00;;;;;6.51;100.00;100807.98;112233;241;162156;-54
2024/03/06 03:26:58;;;;;;;;;33.00;26.00;;;;;6.54;100.00;100808.08;112462;244;39107;-53
2024/03/06 03:29:36;;;;;;;;;34.00;26.00;;;;;6.55;100.00;100809.75;112569;244;39927;-52
2024/03/06 03:32:11;;;;;;;;;35.00;27.00;;;;;6.48;100.00;100810.85;112261;244;161885;-50
2024/03/06 03:34:49;;;;;;;;;47.00;34.00;;;;;6.43;100.00;100813.14;112497;244;39661;-50
2024/03/06 03:37:26;;;;;;;;;46.00;33.00;;;;;6.46;100.00;100814.45;112279;242;161995;-51
2024/03/06 03:40:09;;;;;;;;;47.75;35.25;;;;;6.45;100.00;100815.60;112423;244;40330;-51
2024/03/06 03:42:50;;;;;;;;;43.00;29.00;;;;;6.40;100.00;100815.39;112313;244;162087;-50
2024/03/06 03:45:35;;;;;;;;;44.00;30.00;;;;;6.41;100.00;100818.13;112460;244;40301;-50
2024/03/06 03:48:10;;;;;;;;;32.00;24.33;;;;;6.37;100.00;100820.67;112414;241;162169;-53
2024/03/06 03:50:49;;;;;;;;;38.50;27.00;;;;;6.41;100.00;100819.80;112460;244;39487;-53
2024/03/06 03:53:30;;;;;;;;;42.25;32.00;;;;;6.44;100.00;100824.41;112531;244;39315;-50
2024/03/06 03:56:07;;;;;;;;;37.75;27.00;;;;;6.43;100.00;100823.34;112275;242;162982;-49
2024/03/06 03:58:45;;;;;;;;;37.50;26.00;;;;;6.41;100.00;100820.27;112496;244;40157;-49
2024/03/06 04:01:19;;;;;;;;;37.00;26.00;;;;;6.32;100.00;100823.30;112282;242;161921;-49
2024/03/06 04:03:56;;;;;;;;;36.25;26.00;;;;;6.33;100.00;100823.80;112497;244;40393;-50
2024/03/06 04:06:32;;;;;;;;;34.00;24.75;;;;;6.34;100.00;100828.30;112425;242;163127;-52
2024/03/06 04:09:11;;;;;;;;;34.50;25.50;;;;;6.32;100.00;100830.14;112457;244;39925;-52
2024/03/06 04:11:55;;;;;;;;;36.00;26.00;;;;;6.35;100.00;100829.16;112564;244;39714;-52
2024/03/06 04:14:32;;;;;;;;;34.00;24.00;;;;;6.32;100.00;100830.30;112379;245;41301;-52
2024/03/06 04:17:12;;;;;;;;;36.75;27.25;;;;;6.28;100.00;100831.09;112421;244;39502;-53
2024/03/06 04:19:50;;;;;;;;;36.33;26.67;;;;;6.23;100.00;100832.83;112240;242;161822;-54
2024/03/06 04:22:29;;;;;;;;;28.00;21.00;;;;;6.21;100.00;100834.44;112533;244;40118;-50
2024/03/06 04:25:05;;;;;;;;;43.25;32.25;;;;;6.27;100.00;100834.94;112292;244;161884;-50
2024/03/06 04:27:41;;;;;;;;;35.75;24.75;;;;;6.26;100.00;100839.36;112440;244;39722;-53
2024/03/06 04:30:17;;;;;;;;;30.67;23.67;;;;;6.25;100.00;100838.73;112346;242;161994;-53
2024/03/06 04:32:58;;;;;;;;;31.00;24.00;;;;;6.25;100.00;100844.08;112424;244;39225;-54
2024/03/06 04:35:40;;;;;;;;;35.75;26.00;;;;;6.18;100.00;100842.09;112433;244;39891;-53
2024/03/06 04:38:19;;;;;;;;;34.00;26.00;;;;;6.15;100.00;100841.86;112263;242;161920;-49
2024/03/06 04:40:59;;;;;;;;;35.67;24.33;;;;;6.12;100.00;100840.88;112532;244;39785;-50
2024/03/06 04:43:36;;;;;;;;;34.75;25.50;;;;;6.04;100.00;100843.32;112288;242;164721;-50
2024/03/06 04:46:17;;;;;;;;;34.00;26.50;;;;;6.04;100.00;100845.70;112514;244;39531;-51
2024/03/06 04:49:00;;;;;;;;;42.25;30.00;;;;;6.02;100.00;100846.25;112281;241;161335;-50
2024/03/06 04:51:38;;;;;;;;;57.75;39.00;;;;;5.95;100.00;100850.48;112752;244;39916;-52
2024/03/06 04:54:12;;;;;;;;;34.25;24.00;;;;;5.92;100.00;100850.70;112930;242;162531;-52
2024/03/06 04:56:47;;;;;;;;;43.00;31.00;;;;;5.89;100.00;100853.70;112408;244;39407;-53
2024/03/06 04:59:24;;;;;;;;;49.00;33.00;;;;;5.86;100.00;100859.76;112346;244;40125;-54
2024/03/06 05:02:06;;;;;;;;;37.00;26.00;;;;;5.85;100.00;100864.46;112289;242;162001;-51
2024/03/06 05:04:43;;;;;;;;;29.33;22.00;;;;;5.81;100.00;100866.46;112356;244;40625;-51
2024/03/06 05:07:20;;;;;;;;;26.50;20.75;;;;;5.82;100.00;100867.92;112302;242;161986;-52
2024/03/06 05:09:58;;;;;;;;;29.00;22.00;;;;;5.84;100.00;100869.02;112463;244;39862;-53
2024/03/06 05:12:40;;;;;;;;;44.00;31.67;;;;;5.81;100.00;100872.16;112362;242;162010;-52
2024/03/06 05:15:22;;;;;;;;;35.00;25.00;;;;;5.79;100.00;100875.70;112374;244;39289;-53
2024/03/06 05:18:09;;;;;;;;;35.50;25.00;;;;;5.82;100.00;100874.69;112481;244;40224;-54
2024/03/06 05:20:48;;;;;;;;;38.25;26.25;;;;;5.77;100.00;100879.05;112516;244;41134;-54
2024/03/06 05:23:25;;;;;;;;;40.00;29.00;;;;;5.77;100.00;100876.27;112532;244;39529;-51
2024/03/06 05:26:09;;;;;;;;;36.50;26.75;;;;;5.72;100.00;100879.98;112264;242;162093;-52
2024/03/06 05:28:47;;;;;;;;;32.50;24.50;;;;;5.71;100.00;100883.45;112505;244;39464;-53
2024/03/06 05:31:23;;;;;;;;;42.25;28.50;;;;;5.74;100.00;100884.84;112309;242;160888;-50
2024/03/06 05:34:05;;;;;;;;;39.75;28.50;;;;;5.78;100.00;100888.94;112464;244;39911;-49
2024/03/06 05:36:46;;;;;;;;;48.00;34.67;;;;;5.80;100.00;100885.88;112271;243;161826;-51
2024/03/06 05:39:23;;;;;;;;;35.50;25.50;;;;;5.77;100.00;100888.15;112416;244;40746;-52
2024/03/06 05:42:05;;;;;;;;;47.50;34.00;;;;;5.75;100.00;100890.65;112481;244;39422;-50
2024/03/06 05:44:44;;;;;;;;;33.00;24.25;;;;;5.78;100.00;100894.92;112413;244;40416;-49
2024/03/06 05:47:24;;;;;;;;;43.33;30.67;;;;;5.78;100.00;100897.08;112388;244;40408;-50
2024/03/06 05:50:06;;;;;;;;;36.00;26.50;;;;;5.82;100.00;100896.20;112239;242;161928;-49
2024/03/06 05:52:45;;;;;;;;;37.25;27.50;;;;;5.86;100.00;100898.70;112468;244;40267;-50
2024/03/06 05:55:25;;;;;;;;;39.00;29.00;;;;;5.82;100.00;100899.38;112260;242;161902;-51
2024/03/06 05:58:05;;;;;;;;;44.00;34.00;;;;;5.84;100.00;100900.27;112433;244;40299;-49
2024/03/06 06:00:52;;;;;;;;;31.75;23.50;;;;;5.85;100.00;100906.09;112282;242;162357;-51
2024/03/06 06:03:34;;;;;;;;;33.25;26.00;;;;;5.80;100.00;100911.25;112393;244;41123;-51
2024/03/06 06:06:09;;;;;;;;;32.25;24.00;;;;;5.73;100.00;100903.98;112452;244;39291;-52
2024/03/06 06:08:52;;;;;;;;;39.33;28.33;;;;;5.75;100.00;100909.94;112393;244;40677;-52
2024/03/06 06:11:28;;;;;;;;;31.00;23.50;;;;;5.73;100.00;100911.39;112463;244;39468;-53
2024/03/06 06:14:07;;;;;;;;;27.25;21.25;;;;;5.70;100.00;100913.02;112287;242;161535;-53
2024/03/06 06:16:55;;;;;;;;;32.25;23.50;;;;;5.69;100.00;100919.63;112877;243;39267;-50
2024/03/06 06:19:33;;;;;;;;;32.00;23.00;;;;;5.62;100.00;100926.88;112517;241;163070;-50
2024/03/06 06:22:07;;;;;;;;;32.00;23.75;;;;;5.62;99.92;100932.43;112446;244;40556;-52
2024/03/06 06:24:46;;;;;;;;;29.25;20.00;;;;;5.61;99.94;100934.20;112287;242;162096;-52
2024/03/06 06:27:22;;;;;;;;;36.00;25.00;;;;;5.58;99.77;100936.89;112377;244;40460;-49
2024/03/06 06:30:04;;;;;;;;;31.00;20.67;;;;;5.57;99.82;100940.08;112377;244;39638;-49
2024/03/06 06:32:48;;;;;;;;;22.50;16.75;;;;;5.58;99.82;100947.31;112404;243;41569;-51
2024/03/06 06:35:27;;;;;;;;;22.50;17.75;;;;;5.58;99.70;100945.67;112345;244;39822;-52
2024/03/06 06:38:04;;;;;;;;;34.00;23.00;;;;;5.56;99.78;100951.23;111750;242;708718;-49
2024/03/06 06:40:43;;;;;;;;;32.75;23.25;;;;;5.55;99.85;100953.29;112442;244;40882;-50
2024/03/06 06:43:26;;;;;;;;;31.00;23.00;;;;;5.54;99.71;100956.40;112313;242;161735;-52
2024/03/06 06:46:09;;;;;;;;;29.00;22.00;;;;;5.56;99.61;100956.91;112471;244;39397;-52
2024/03/06 06:48:50;;;;;;;;;32.50;25.00;;;;;5.52;99.38;100959.45;112371;242;162022;-52
2024/03/06 06:51:29;;;;;;;;;26.33;18.00;;;;;5.48;99.11;100963.40;112434;244;39854;-49
2024/03/06 06:54:11;;;;;;;;;27.75;20.00;;;;;5.35;98.93;100967.23;112517;244;39867;-49
2024/03/06 06:56:55;;;;;;;;;22.50;17.00;;;;;5.29;99.05;100968.35;112372;244;41886;-50
2024/03/06 06:59:31;;;;;;;;;19.50;15.00;;;;;5.24;98.91;100969.76;112373;244;39530;-50
2024/03/06 07:02:08;;;;;;;;;22.00;16.00;;;;;5.21;98.81;100968.60;112323;242;161321;-53
2024/03/06 07:04:43;;;;;;;;;25.33;19.00;;;;;5.24;98.76;100970.70;112472;244;39898;-54
2024/03/06 07:07:23;;;;;;;;;21.00;16.00;;;;;5.27;98.65;100972.85;112265;242;162766;-54
2024/03/06 07:10:07;;;;;;;;;22.67;17.67;;;;;5.30;98.69;100975.98;112544;244;39493;-53
2024/03/06 07:12:44;;;;;;;;;28.00;23.00;;;;;5.29;98.72;100973.00;112451;242;161909;-51
2024/03/06 07:15:26;;;;;;;;;24.00;19.00;;;;;5.36;98.72;100973.96;112432;244;39898;-52
2024/03/06 07:18:06;;;;;;;;;25.00;20.00;;;;;5.44;98.71;100978.64;112540;244;38969;-50
2024/03/06 07:20:45;;;;;;;;;28.00;21.00;;;;;5.46;98.48;100982.02;112432;243;41102;-49
2024/03/06 07:23:24;;;;;;;;;26.25;19.25;;;;;5.49;98.35;100984.64;112551;244;39522;-52
2024/03/06 07:26:07;;;;;;;;;24.00;18.00;;;;;5.47;98.17;100987.69;112315;242;161504;-50
2024/03/06 07:28:47;;;;;;;;;30.67;23.67;;;;;5.52;98.07;100990.78;112534;244;39636;-50
2024/03/06 07:31:28;;;;;;;;;23.00;18.00;;;;;5.52;97.77;100992.16;112306;241;161317;-51
2024/03/06 07:34:09;;;;;;;;;23.00;17.00;;;;;5.57;97.72;100992.95;112625;243;41075;-50
2024/03/06 07:36:46;;;;;;;;;26.00;19.00;;;;;5.65;97.72;100989.00;112606;241;161279;-50
2024/03/06 07:39:23;;;;;;;;;26.00;19.00;;;;;5.68;97.50;100991.88;112416;244;40424;-50
2024/03/06 07:42:04;;;;;;;;;28.33;21.00;;;;;5.61;97.45;100996.34;112586;244;40195;-54
2024/03/06 07:44:44;;;;;;;;;26.25;19.50;;;;;5.62;97.21;101002.45;112275;244;161456;-53
2024/03/06 07:47:21;;;;;;;;;24.75;18.00;;;;;5.54;97.03;101003.23;112573;244;38937;-53
2024/03/06 07:49:59;;;;;;;;;26.00;20.00;;;;;5.52;97.10;101005.70;112320;244;161271;-53
2024/03/06 07:52:39;;;;;;;;;24.50;19.00;;;;;5.53;96.75;101006.02;112586;244;39449;-54
2024/03/06 07:55:13;;;;;;;;;26.25;21.00;;;;;5.47;96.59;101006.77;112298;242;161542;-55
2024/03/06 07:57:47;;;;;;;;;30.00;23.00;;;;;5.49;96.77;101007.45;112417;244;41741;-52
2024/03/06 08:00:22;;;;;;;;;35.00;23.67;;;;;5.56;96.72;101013.06;112276;242;161810;-49
2024/03/06 08:03:01;;;;;;;;;31.00;21.00;;;;;5.57;96.68;101008.69;112408;244;39267;-50
2024/03/06 08:05:42;;;;;;;;;31.25;22.50;;;;;5.62;96.69;101009.67;112382;244;39683;-50
2024/03/06 08:08:20;;;;;;;;;23.00;18.00;;;;;5.72;96.73;101016.35;112316;242;161832;-51
2024/03/06 08:10:54;;;;;;;;;29.00;20.75;;;;;5.68;96.28;101020.45;112535;243;40895;-52
2024/03/06 08:13:29;;;;;;;;;23.33;17.00;;;;;5.66;96.31;101026.00;112307;243;161890;-50
2024/03/06 08:16:07;;;;;;;;;27.50;21.75;;;;;5.56;95.84;101024.99;112559;243;40030;-51
2024/03/06 08:18:42;;;;;;;;;25.67;18.67;;;;;5.47;95.86;101031.95;112239;244;162157;-53
2024/03/06 08:21:19;;;;;;;;;23.50;18.00;;;;;5.40;96.02;101026.89;112339;244;39725;-53
2024/03/06 08:23:56;;;;;;;;;24.00;19.00;;;;;5.40;96.04;101034.05;112395;244;40258;-54
2024/03/06 08:26:30;;;;;;;;;27.50;19.25;;;;;5.42;95.98;101033.63;112334;242;161087;-51
2024/03/06 08:29:06;;;;;;;;;24.00;18.33;;;;;5.45;96.01;101038.80;112366;244;41747;-51
2024/03/06 08:31:44;;;;;;;;;21.25;16.50;;;;;5.48;96.14;101039.19;112300;242;161303;-53
2024/03/06 08:34:22;;;;;;;;;20.75;17.00;;;;;5.51;96.11;101041.95;112429;244;39686;-53
2024/03/06 08:37:00;;;;;;;;;31.75;24.75;;;;;5.57;96.05;101041.86;112311;243;162049;-54
2024/03/06 08:39:37;;;;;;;;;27.00;18.75;;;;;5.62;96.14;101040.16;112454;244;40280;-53
2024/03/06 08:42:12;;;;;;;;;28.00;19.33;;;;;5.58;95.90;101044.11;112443;244;40307;-57
2024/03/06 08:44:50;;;;;;;;;26.25;19.75;;;;;5.55;95.85;101044.07;112434;244;39574;-49
2024/03/06 08:47:27;;;;;;;;;30.00;23.00;;;;;5.58;95.87;101045.06;112415;244;39063;-53
2024/03/06 08:50:09;;;;;;;;;28.00;21.00;;;;;5.53;95.46;101046.41;112292;242;160760;-52
2024/03/06 08:52:50;;;;;;;;;25.33;18.67;;;;;5.50;95.48;101051.30;112399;244;39645;-52
2024/03/06 08:55:32;;;;;;;;;18.50;15.00;;;;;5.50;95.32;101049.91;112229;242;160367;-52
2024/03/06 08:58:09;;;;;;;;;31.00;21.00;;;;;5.51;95.06;101057.13;112406;244;39653;-50
2024/03/06 09:00:49;;;;;;;;;25.00;19.00;;;;;5.45;94.88;101052.64;112278;242;162164;-50
2024/03/06 09:03:26;;;;;;;;;19.75;15.00;;;;;5.44;94.71;101055.46;112382;244;39545;-50
2024/03/06 09:06:03;;;;;;;;;22.00;16.00;;;;;5.44;94.40;101059.52;112401;244;39306;-51
2024/03/06 09:08:44;;;;;;;;;17.00;14.00;;;;;5.49;94.57;101063.70;112230;243;161245;-51
2024/03/06 09:11:26;;;;;;;;;18.00;14.50;;;;;5.49;94.67;101062.82;112407;244;39522;-51
2024/03/06 09:14:09;;;;;;;;;24.75;18.00;;;;;5.55;94.65;101061.59;112237;243;161368;-51
2024/03/06 09:16:49;;;;;;;;;29.00;20.00;;;;;5.59;94.78;101065.08;112399;244;39253;-50
2024/03/06 09:19:25;;;;;;;;;26.00;19.00;;;;;5.63;94.97;101069.37;112243;242;161772;-50
2024/03/06 09:22:02;;;;;;;;;20.50;15.50;;;;;5.63;94.73;101071.32;112402;244;39372;-50
2024/03/06 09:24:38;;;;;;;;;24.00;17.00;;;;;5.66;94.66;101076.29;112234;241;162002;-49
2024/03/06 09:27:15;;;;;;;;;19.00;16.00;;;;;5.70;94.24;101077.63;112511;243;42853;-54
2024/03/06 09:29:54;;;;;;;;;23.00;18.00;;;;;5.71;93.66;101075.57;112466;244;40368;-54
2024/03/06 09:32:32;;;;;;;;;18.67;14.33;;;;;5.77;93.73;101074.16;112316;242;160638;-50
2024/03/06 09:35:07;;;;;;;;;19.33;14.00;;;;;5.86;93.88;101073.31;112417;244;39398;-50
2024/03/06 09:37:46;;;;;;;;;20.33;14.00;;;;;5.95;93.98;101071.05;112318;242;161242;-50
2024/03/06 09:40:32;;;;;;;;;36.00;25.75;;;;;6.05;93.93;101073.71;112369;244;39415;-50
2024/03/06 09:43:10;;;;;;;;;26.75;18.75;;;;;6.03;93.67;101074.08;112255;243;162774;-49
2024/03/06 09:45:47;;;;;;;;;23.00;19.00;;;;;6.01;93.09;101075.48;112374;244;40077;-50
2024/03/06 09:48:30;;;;;;;;;20.00;15.00;;;;;6.03;93.17;101079.72;112263;244;161583;-50
2024/03/06 09:51:06;;;;;;;;;21.00;15.00;;;;;6.11;93.25;101084.35;112402;244;39689;-52
2024/03/06 09:53:44;;;;;;;;;24.75;18.25;;;;;6.17;93.26;101083.60;112360;244;39931;-53
2024/03/06 09:56:17;;;;;;;;;32.00;24.00;;;;;6.22;92.84;101088.16;112271;242;161290;-51
2024/03/06 09:58:55;;;;;;;;;20.00;15.00;;;;;6.17;91.99;101089.22;112445;243;40802;-51
2024/03/06 10:01:31;;;;;;;;;20.25;16.00;;;;;6.01;91.13;101089.80;112207;244;160825;-51
2024/03/06 10:04:22;;;;;;;;;22.33;17.33;;;;;5.95;91.25;101093.23;112412;244;39234;-51
2024/03/06 10:07:02;;;;;;;;;30.67;22.33;;;;;5.91;91.83;101097.02;112301;243;160602;-53
2024/03/06 10:09:36;;;;;;;;;21.00;15.50;;;;;5.99;91.95;101096.73;112372;244;39706;-53
2024/03/06 10:12:13;;;;;;;;;23.75;16.00;;;;;6.08;91.54;101101.26;112406;244;39917;-51
2024/03/06 10:14:53;;;;;;;;;29.00;21.00;;;;;6.05;90.94;101104.09;112396;243;39364;-51
2024/03/06 10:17:35;;;;;;;;;27.00;20.00;;;;;6.13;90.63;101103.14;112452;244;39132;-52
2024/03/06 10:20:23;;;;;;;;;29.50;23.00;;;;;6.16;90.43;101107.52;112257;242;161804;-52
2024/03/06 10:23:00;;;;;;;;;25.00;20.00;;;;;6.15;89.88;101104.41;112418;244;39309;-51
2024/03/06 10:25:39;;;;;;;;;35.00;26.00;;;;;6.12;89.56;101108.45;112288;242;161101;-50
2024/03/06 10:28:14;;;;;;;;;28.75;22.75;;;;;6.04;89.68;101112.22;112429;244;39892;-49
2024/03/06 10:30:52;;;;;;;;;25.25;20.25;;;;;6.00;89.30;101110.84;112261;243;160881;-50
2024/03/06 10:33:32;;;;;;;;;18.50;14.50;;;;;5.91;89.49;101117.31;112361;244;39625;-49
2024/03/06 10:36:11;;;;;;;;;25.50;20.25;;;;;5.91;89.50;101120.79;112352;244;41790;-52
2024/03/06 10:38:50;;;;;;;;;27.50;21.25;;;;;5.99;89.78;101122.55;112300;243;160129;-53
2024/03/06 10:41:32;;;;;;;;;19.00;14.00;;;;;5.99;88.90;101125.60;112424;244;39444;-53
2024/03/06 10:44:14;;;;;;;;;19.00;14.00;;;;;5.99;88.84;101125.60;112263;242;160890;-54
2024/03/06 10:46:58;;;;;;;;;23.67;18.33;;;;;6.04;88.42;101126.34;112395;244;39233;-50
2024/03/06 10:49:38;;;;;;;;;20.25;15.00;;;;;5.97;88.07;101125.94;112278;242;163457;-50
2024/03/06 10:52:16;;;;;;;;;27.25;19.50;;;;;6.04;88.14;101130.96;112399;244;40059;-52
2024/03/06 10:54:51;;;;;;;;;20.00;15.00;;;;;6.10;88.31;101128.49;112272;242;161928;-51
2024/03/06 10:57:25;;;;;;;;;20.00;15.00;;;;;6.21;88.02;101124.71;112521;244;42958;-53
2024/03/06 11:00:01;;;;;;;;;19.25;14.75;;;;;6.23;87.77;101129.88;112427;244;42658;-53
2024/03/06 11:02:40;;;;;;;;;21.00;16.00;;;;;6.28;87.97;101129.44;112347;243;161538;-53
2024/03/06 11:05:15;;;;;;;;;25.00;20.00;;;;;6.20;86.63;101135.68;112448;244;39858;-53
2024/03/06 11:07:57;;;;;;;;;20.00;14.00;;;;;6.14;86.69;101129.88;112363;242;160789;-50
2024/03/06 11:10:39;;;;;;;;;11.50;9.25;;;;;6.12;86.85;101131.63;112473;244;39472;-50
2024/03/06 11:13:26;;;;;;;;;17.50;12.50;;;;;6.16;87.01;101129.29;112293;243;162396;-53
2024/03/06 11:16:04;;;;;;;;;15.67;12.00;;;;;6.13;86.65;101128.19;112439;244;40102;-53
2024/03/06 11:19:05;;;;;;;;;22.00;16.25;;;;;6.18;86.75;101129.15;112237;241;161478;-53
2024/03/06 11:21:48;;;;;;;;;29.00;20.00;;;;;6.19;86.22;101130.61;112442;244;40809;-51
2024/03/06 11:24:24;;;;;;;;;20.00;15.00;;;;;6.23;85.86;101130.43;112307;244;161231;-52
2024/03/06 11:27:15;;;;;;;;;19.75;14.50;;;;;6.14;84.54;101137.76;112385;244;40085;-51
2024/03/06 11:30:13;;;;;;;;;15.50;11.75;;;;;6.08;84.99;101136.84;112397;244;39373;-50
2024/03/06 11:33:04;;;;;;;;;13.00;10.33;;;;;6.16;84.36;101130.92;112274;243;160250;-52
2024/03/06 11:36:07;;;;;;;;;16.00;13.00;;;;;6.22;84.37;101127.36;112432;244;39570;-53
2024/03/06 11:38:53;;;;;;;;;25.00;15.67;;;;;6.39;84.40;101128.52;112339;242;160188;-51
2024/03/06 11:41:29;;;;;;;;;14.00;10.25;;;;;6.49;84.15;101129.73;112412;244;39572;-52
2024/03/06 11:44:08;;;;;;;;;16.75;11.50;;;;;6.59;83.81;101126.09;112306;243;160759;-53
2024/03/06 11:46:53;;;;;;;;;13.00;9.25;;;;;6.75;83.83;101124.02;112412;244;39397;-53
2024/03/06 11:49:31;;;;;;;;;17.50;13.00;;;;;6.87;82.51;101121.38;112321;242;160379;-54
2024/03/06 11:52:07;;;;;;;;;18.75;14.00;;;;;6.91;81.63;101122.24;112521;244;39705;-52
2024/03/06 11:54:45;;;;;;;;;16.25;13.00;;;;;7.06;81.98;101117.79;112287;240;160839;-52
2024/03/06 11:57:23;;;;;;;;;19.75;14.00;;;;;7.19;81.02;101122.36;112520;243;40080;-51
2024/03/06 12:00:06;;;;;;;;;14.67;10.33;;;;;7.18;79.79;101125.38;112478;243;39881;-51
2024/03/06 12:02:48;;;;;;;;;19.50;15.50;;;;;7.08;78.97;101130.81;112368;242;160581;-55
2024/03/06 12:05:26;;;;;;;;;16.33;12.00;;;;;7.08;79.19;101128.11;112437;244;39616;-54